sensor_id;sensor_type;location;lat;lon;timestamp;P1;P2;P0
77411;PMS7003;66484;49.968;19.140;2023-01-13T00:01:43;2.75;2.00;2.00
77411;PMS7003;66484;49.968;19.140;2023-01-13T00:04:09;0.00;0.00;0.00
77411;PMS7003;66484;49.968;19.140;2023-01-13T00:06:35;1.00;1.00;1.00
77411;PMS7003;66484;49.968;19.140;2023-01-13T00:09:02;1.50;0.00;0.00
77411;PMS7003;66484;49.968;19.140;2023-01-13T00:11:28;1.00;1.00;1.00
77411;PMS7003;66484;49.968;19.140;2023-01-13T00:13:54;2.75;2.25;1.00
77411;PMS7003;66484;49.968;19.140;2023-01-13T00:16:20;2.00;1.00;1.00
77411;PMS7003;66484;49.968;19.140;2023-01-13T00:18:47;5.75;3.25;3.00
77411;PMS7003;66484;49.968;19.140;2023-01-13T00:21:14;6.50;3.50;3.00
77411;PMS7003;66484;49.968;19.140;2023-01-13T00:23:48;2.00;2.00;2.00
77411;PMS7003;66484;49.968;19.140;2023-01-13T00:26:17;6.00;6.00;3.00
77411;PMS7003;66484;49.968;19.140;2023-01-13T00:28:44;2.00;2.00;1.25
77411;PMS7003;66484;49.968;19.140;2023-01-13T00:31:12;3.25;1.50;1.00
77411;PMS7003;66484;49.968;19.140;2023-01-13T00:33:42;4.75;3.00;1.25
77411;PMS7003;66484;49.968;19.140;2023-01-13T00:36:09;1.25;1.25;1.25
77411;PMS7003;66484;49.968;19.140;2023-01-13T00:38:37;2.50;2.50;1.00
77411;PMS7003;66484;49.968;19.140;2023-01-13T00:41:05;2.00;2.00;1.00
77411;PMS7003;66484;49.968;19.140;2023-01-13T00:43:33;1.25;1.25;1.25
77411;PMS7003;66484;49.968;19.140;2023-01-13T00:45:59;2.50;2.50;2.00
77411;PMS7003;66484;49.968;19.140;2023-01-13T00:48:26;3.00;3.00;2.00
77411;PMS7003;66484;49.968;19.140;2023-01-13T00:50:59;3.25;3.25;3.25
77411;PMS7003;66484;49.968;19.140;2023-01-13T00:53:27;3.25;1.50;0.00
77411;PMS7003;66484;49.968;19.140;2023-01-13T00:56:00;2.50;2.50;2.00
77411;PMS7003;66484;49.968;19.140;2023-01-13T00:58:27;6.25;5.50;5.00
77411;PMS7003;66484;49.968;19.140;2023-01-13T01:00:59;6.25;6.25;5.25
77411;PMS7003;66484;49.968;19.140;2023-01-13T01:03:26;3.25;3.25;2.75
77411;PMS7003;66484;49.968;19.140;2023-01-13T01:05:53;4.50;4.50;3.50
77411;PMS7003;66484;49.968;19.140;2023-01-13T01:08:20;4.50;4.50;2.75
77411;PMS7003;66484;49.968;19.140;2023-01-13T01:10:46;5.00;5.00;4.75
77411;PMS7003;66484;49.968;19.140;2023-01-13T01:13:12;7.50;5.25;4.75
77411;PMS7003;66484;49.968;19.140;2023-01-13T01:15:41;7.00;5.50;2.00
77411;PMS7003;66484;49.968;19.140;2023-01-13T01:18:08;10.00;6.50;4.00
77411;PMS7003;66484;49.968;19.140;2023-01-13T01:20:35;6.50;6.50;6.00
77411;PMS7003;66484;49.968;19.140;2023-01-13T01:23:02;7.00;3.00;2.00
77411;PMS7003;66484;49.968;19.140;2023-01-13T01:25:28;2.75;2.00;2.00
77411;PMS7003;66484;49.968;19.140;2023-01-13T01:27:54;2.75;1.50;1.00
77411;PMS7003;66484;49.968;19.140;2023-01-13T01:30:19;2.00;2.00;1.00
77411;PMS7003;66484;49.968;19.140;2023-01-13T01:32:45;3.00;3.00;2.00
77411;PMS7003;66484;49.968;19.140;2023-01-13T01:35:11;6.00;5.00;3.00
77411;PMS7003;66484;49.968;19.140;2023-01-13T01:37:37;3.50;2.00;2.00
77411;PMS7003;66484;49.968;19.140;2023-01-13T01:40:03;4.00;4.00;1.50
77411;PMS7003;66484;49.968;19.140;2023-01-13T01:42:29;1.00;1.00;1.00
77411;PMS7003;66484;49.968;19.140;2023-01-13T01:45:16;5.25;2.25;2.00
77411;PMS7003;66484;49.968;19.140;2023-01-13T01:47:45;2.00;2.00;1.25
77411;PMS7003;66484;49.968;19.140;2023-01-13T01:50:12;6.50;4.75;3.50
77411;PMS7003;66484;49.968;19.140;2023-01-13T01:52:40;8.50;6.00;5.00
77411;PMS7003;66484;49.968;19.140;2023-01-13T01:57:42;19.50;13.00;6.00
77411;PMS7003;66484;49.968;19.140;2023-01-13T02:00:30;16.00;11.50;9.75
77411;PMS7003;66484;49.968;19.140;2023-01-13T02:02:57;14.25;10.25;6.25
77411;PMS7003;66484;49.968;19.140;2023-01-13T02:05:23;21.00;18.25;13.25
77411;PMS7003;66484;49.968;19.140;2023-01-13T02:07:50;11.25;9.50;6.00
77411;PMS7003;66484;49.968;19.140;2023-01-13T02:10:18;8.75;8.25;5.75
77411;PMS7003;66484;49.968;19.140;2023-01-13T02:12:46;12.00;9.50;8.25
77411;PMS7003;66484;49.968;19.140;2023-01-13T02:15:14;9.50;7.00;6.50
77411;PMS7003;66484;49.968;19.140;2023-01-13T02:31:01;11.00;9.75;5.50
77411;PMS7003;66484;49.968;19.140;2023-01-13T02:34:36;9.25;9.25;6.00
77411;PMS7003;66484;49.968;19.140;2023-01-13T02:39:40;9.25;6.00;4.50
77411;PMS7003;66484;49.968;19.140;2023-01-13T02:42:12;7.00;7.00;3.00
77411;PMS7003;66484;49.968;19.140;2023-01-13T02:47:33;6.00;6.00;5.00
77411;PMS7003;66484;49.968;19.140;2023-01-13T02:50:03;5.00;3.00;2.75
77411;PMS7003;66484;49.968;19.140;2023-01-13T02:55:06;1.00;1.00;0.00
77411;PMS7003;66484;49.968;19.140;2023-01-13T02:57:35;5.00;3.25;2.00
77411;PMS7003;66484;49.968;19.140;2023-01-13T03:00:03;4.50;4.50;3.00
77411;PMS7003;66484;49.968;19.140;2023-01-13T03:02:30;3.50;3.00;2.50
77411;PMS7003;66484;49.968;19.140;2023-01-13T03:04:57;1.75;1.50;1.00
77411;PMS7003;66484;49.968;19.140;2023-01-13T03:15:53;5.50;4.00;3.25
77411;PMS7003;66484;49.968;19.140;2023-01-13T03:20:58;4.50;4.50;4.00
77411;PMS7003;66484;49.968;19.140;2023-01-13T03:24:00;11.00;10.50;6.25
77411;PMS7003;66484;49.968;19.140;2023-01-13T03:26:44;8.50;7.00;6.00
77411;PMS7003;66484;49.968;19.140;2023-01-13T03:32:32;9.75;9.75;8.25
77411;PMS7003;66484;49.968;19.140;2023-01-13T03:34:50;9.00;6.00;4.00
77411;PMS7003;66484;49.968;19.140;2023-01-13T03:37:20;9.50;9.50;6.00
77411;PMS7003;66484;49.968;19.140;2023-01-13T03:39:51;6.00;6.00;3.00
77411;PMS7003;66484;49.968;19.140;2023-01-13T03:42:23;6.25;5.50;5.25
77411;PMS7003;66484;49.968;19.140;2023-01-13T03:45:04;10.50;6.25;5.50
77411;PMS7003;66484;49.968;19.140;2023-01-13T03:47:41;9.00;9.00;7.25
77411;PMS7003;66484;49.968;19.140;2023-01-13T03:50:19;8.25;8.25;6.00
77411;PMS7003;66484;49.968;19.140;2023-01-13T03:53:04;9.75;6.50;5.25
77411;PMS7003;66484;49.968;19.140;2023-01-13T03:55:35;6.50;6.50;4.50
77411;PMS7003;66484;49.968;19.140;2023-01-13T03:58:16;6.00;6.00;4.50
77411;PMS7003;66484;49.968;19.140;2023-01-13T04:06:09;16.50;11.50;8.75
77411;PMS7003;66484;49.968;19.140;2023-01-13T04:08:41;16.25;14.00;10.00
77411;PMS7003;66484;49.968;19.140;2023-01-13T04:11:13;16.00;12.50;8.25
77411;PMS7003;66484;49.968;19.140;2023-01-13T04:13:43;13.50;13.00;8.50
77411;PMS7003;66484;49.968;19.140;2023-01-13T04:16:11;9.50;9.00;8.00
77411;PMS7003;66484;49.968;19.140;2023-01-13T04:18:37;8.50;8.00;6.50
77411;PMS7003;66484;49.968;19.140;2023-01-13T04:21:04;11.50;8.00;7.00
77411;PMS7003;66484;49.968;19.140;2023-01-13T04:23:30;14.00;12.50;9.50
77411;PMS7003;66484;49.968;19.140;2023-01-13T04:25:57;12.00;9.25;6.00
77411;PMS7003;66484;49.968;19.140;2023-01-13T04:28:23;14.00;11.50;9.50
77411;PMS7003;66484;49.968;19.140;2023-01-13T04:30:49;20.75;19.00;13.25
77411;PMS7003;66484;49.968;19.140;2023-01-13T04:33:16;23.75;17.75;14.00
77411;PMS7003;66484;49.968;19.140;2023-01-13T04:35:43;10.00;10.00;8.00
77411;PMS7003;66484;49.968;19.140;2023-01-13T04:38:10;16.50;15.00;13.00
77411;PMS7003;66484;49.968;19.140;2023-01-13T04:40:40;8.75;8.75;7.50
77411;PMS7003;66484;49.968;19.140;2023-01-13T04:43:07;18.75;15.50;10.25
77411;PMS7003;66484;49.968;19.140;2023-01-13T04:45:32;16.00;14.25;10.00
77411;PMS7003;66484;49.968;19.140;2023-01-13T04:47:58;6.50;6.50;6.00
77411;PMS7003;66484;49.968;19.140;2023-01-13T04:50:24;5.00;5.00;5.00
77411;PMS7003;66484;49.968;19.140;2023-01-13T04:52:51;7.00;5.25;3.00
77411;PMS7003;66484;49.968;19.140;2023-01-13T04:55:17;12.75;6.75;5.00
77411;PMS7003;66484;49.968;19.140;2023-01-13T04:57:44;9.75;8.00;7.00
77411;PMS7003;66484;49.968;19.140;2023-01-13T05:00:11;9.00;8.25;5.50
77411;PMS7003;66484;49.968;19.140;2023-01-13T05:02:38;27.75;25.50;16.50
77411;PMS7003;66484;49.968;19.140;2023-01-13T05:05:04;22.25;18.75;14.50
77411;PMS7003;66484;49.968;19.140;2023-01-13T05:07:31;20.25;16.50;10.00
77411;PMS7003;66484;49.968;19.140;2023-01-13T05:09:56;15.25;14.75;11.00
77411;PMS7003;66484;49.968;19.140;2023-01-13T05:12:22;13.00;11.00;9.00
77411;PMS7003;66484;49.968;19.140;2023-01-13T05:15:09;12.50;6.50;5.50
77411;PMS7003;66484;49.968;19.140;2023-01-13T05:17:55;12.50;10.75;9.00
77411;PMS7003;66484;49.968;19.140;2023-01-13T05:20:21;20.50;17.25;12.00
77411;PMS7003;66484;49.968;19.140;2023-01-13T05:22:47;14.25;12.75;7.00
77411;PMS7003;66484;49.968;19.140;2023-01-13T05:25:32;10.50;7.50;6.00
77411;PMS7003;66484;49.968;19.140;2023-01-13T05:28:00;13.25;13.25;10.25
77411;PMS7003;66484;49.968;19.140;2023-01-13T05:30:27;13.00;9.25;6.25
77411;PMS7003;66484;49.968;19.140;2023-01-13T05:32:54;15.75;8.25;6.75
77411;PMS7003;66484;49.968;19.140;2023-01-13T05:35:20;6.75;6.75;5.25
77411;PMS7003;66484;49.968;19.140;2023-01-13T05:37:46;2.00;2.00;2.00
77411;PMS7003;66484;49.968;19.140;2023-01-13T05:40:13;5.00;5.00;2.75
77411;PMS7003;66484;49.968;19.140;2023-01-13T05:43:00;5.50;4.00;3.25
77411;PMS7003;66484;49.968;19.140;2023-01-13T05:48:12;4.00;4.00;3.50
77411;PMS7003;66484;49.968;19.140;2023-01-13T05:50:38;3.25;1.75;1.75
77411;PMS7003;66484;49.968;19.140;2023-01-13T05:53:04;3.50;3.50;2.00
77411;PMS7003;66484;49.968;19.140;2023-01-13T05:55:30;2.25;2.00;2.00
77411;PMS7003;66484;49.968;19.140;2023-01-13T05:57:56;2.50;2.50;2.00
77411;PMS7003;66484;49.968;19.140;2023-01-13T06:00:22;5.00;5.00;3.00
77411;PMS7003;66484;49.968;19.140;2023-01-13T06:02:48;2.00;2.00;2.00
77411;PMS7003;66484;49.968;19.140;2023-01-13T06:05:14;2.75;2.75;2.00
77411;PMS7003;66484;49.968;19.140;2023-01-13T06:07:40;2.75;2.50;2.00
77411;PMS7003;66484;49.968;19.140;2023-01-13T06:10:06;1.00;1.00;0.25
77411;PMS7003;66484;49.968;19.140;2023-01-13T06:12:33;4.50;2.75;2.50
77411;PMS7003;66484;49.968;19.140;2023-01-13T06:14:59;4.50;4.50;3.50
77411;PMS7003;66484;49.968;19.140;2023-01-13T06:17:25;3.00;1.67;1.00
77411;PMS7003;66484;49.968;19.140;2023-01-13T06:19:53;3.00;3.00;2.00
77411;PMS7003;66484;49.968;19.140;2023-01-13T06:22:27;0.67;0.67;0.00
77411;PMS7003;66484;49.968;19.140;2023-01-13T06:24:59;7.00;2.75;2.25
77411;PMS7003;66484;49.968;19.140;2023-01-13T06:27:27;3.00;3.00;2.00
77411;PMS7003;66484;49.968;19.140;2023-01-13T06:29:53;6.00;6.00;3.00
77411;PMS7003;66484;49.968;19.140;2023-01-13T06:32:22;6.00;2.00;1.00
77411;PMS7003;66484;49.968;19.140;2023-01-13T06:34:55;5.00;5.00;4.00
77411;PMS7003;66484;49.968;19.140;2023-01-13T06:37:25;5.00;5.00;4.50
77411;PMS7003;66484;49.968;19.140;2023-01-13T06:39:52;8.75;6.00;4.50
77411;PMS7003;66484;49.968;19.140;2023-01-13T06:42:23;2.75;2.75;2.75
77411;PMS7003;66484;49.968;19.140;2023-01-13T06:45:09;5.00;5.00;4.00
77411;PMS7003;66484;49.968;19.140;2023-01-13T06:47:35;9.75;5.50;5.00
77411;PMS7003;66484;49.968;19.140;2023-01-13T06:50:01;4.50;4.50;3.00
77411;PMS7003;66484;49.968;19.140;2023-01-13T06:52:27;7.50;5.25;4.50
77411;PMS7003;66484;49.968;19.140;2023-01-13T06:54:55;10.50;10.50;8.00
77411;PMS7003;66484;49.968;19.140;2023-01-13T06:57:22;6.25;6.25;4.00
77411;PMS7003;66484;49.968;19.140;2023-01-13T06:59:48;8.00;6.50;4.50
77411;PMS7003;66484;49.968;19.140;2023-01-13T07:02:14;15.25;9.75;8.00
77411;PMS7003;66484;49.968;19.140;2023-01-13T07:04:40;8.00;6.50;5.50
77411;PMS7003;66484;49.968;19.140;2023-01-13T07:07:06;5.25;5.25;5.25
77411;PMS7003;66484;49.968;19.140;2023-01-13T07:09:32;17.00;9.25;6.75
77411;PMS7003;66484;49.968;19.140;2023-01-13T07:11:58;5.25;5.25;5.00
77411;PMS7003;66484;49.968;19.140;2023-01-13T07:14:24;8.00;8.00;5.75
77411;PMS7003;66484;49.968;19.140;2023-01-13T07:17:09;5.25;3.00;2.50
77411;PMS7003;66484;49.968;19.140;2023-01-13T07:19:34;9.00;6.25;5.25
77411;PMS7003;66484;49.968;19.140;2023-01-13T07:22:01;10.33;8.33;6.00
77411;PMS7003;66484;49.968;19.140;2023-01-13T07:24:26;5.00;5.00;3.00
77411;PMS7003;66484;49.968;19.140;2023-01-13T07:26:52;5.67;5.67;5.00
77411;PMS7003;66484;49.968;19.140;2023-01-13T07:29:18;7.00;7.00;6.00
77411;PMS7003;66484;49.968;19.140;2023-01-13T07:31:44;5.00;5.00;3.67
77411;PMS7003;66484;49.968;19.140;2023-01-13T07:34:12;5.33;5.00;2.00
77411;PMS7003;66484;49.968;19.140;2023-01-13T07:36:38;6.33;5.00;2.00
77411;PMS7003;66484;49.968;19.140;2023-01-13T07:39:04;6.75;2.25;1.50
77411;PMS7003;66484;49.968;19.140;2023-01-13T07:41:30;6.33;4.33;4.33
77411;PMS7003;66484;49.968;19.140;2023-01-13T07:44:17;3.67;2.00;2.00
77411;PMS7003;66484;49.968;19.140;2023-01-13T07:46:43;5.67;5.00;3.00
77411;PMS7003;66484;49.968;19.140;2023-01-13T07:49:09;3.75;3.50;3.50
77411;PMS7003;66484;49.968;19.140;2023-01-13T07:51:36;2.33;2.33;2.00
77411;PMS7003;66484;49.968;19.140;2023-01-13T07:54:03;5.00;5.00;3.00
77411;PMS7003;66484;49.968;19.140;2023-01-13T07:56:29;10.00;9.67;8.33
77411;PMS7003;66484;49.968;19.140;2023-01-13T07:58:55;8.67;5.67;5.00
77411;PMS7003;66484;49.968;19.140;2023-01-13T08:01:23;4.33;4.33;2.67
77411;PMS7003;66484;49.968;19.140;2023-01-13T08:03:49;5.67;3.67;2.00
77411;PMS7003;66484;49.968;19.140;2023-01-13T08:06:15;6.33;5.33;3.00
77411;PMS7003;66484;49.968;19.140;2023-01-13T08:08:41;9.33;6.33;5.67
77411;PMS7003;66484;49.968;19.140;2023-01-13T08:11:07;4.33;4.33;3.67
77411;PMS7003;66484;49.968;19.140;2023-01-13T08:13:33;5.67;5.67;3.67
77411;PMS7003;66484;49.968;19.140;2023-01-13T08:16:00;5.00;4.00;3.67
77411;PMS7003;66484;49.968;19.140;2023-01-13T08:18:30;5.00;5.00;3.67
77411;PMS7003;66484;49.968;19.140;2023-01-13T08:21:00;6.00;6.00;4.67
77411;PMS7003;66484;49.968;19.140;2023-01-13T08:23:27;8.33;5.67;5.00
77411;PMS7003;66484;49.968;19.140;2023-01-13T08:25:53;9.33;7.00;6.00
77411;PMS7003;66484;49.968;19.140;2023-01-13T08:28:19;6.67;5.33;3.67
77411;PMS7003;66484;49.968;19.140;2023-01-13T08:30:45;5.33;5.33;3.00
77411;PMS7003;66484;49.968;19.140;2023-01-13T08:33:11;5.00;5.00;3.00
77411;PMS7003;66484;49.968;19.140;2023-01-13T08:35:38;2.67;2.67;2.00
77411;PMS7003;66484;49.968;19.140;2023-01-13T08:38:05;2.00;2.00;1.00
77411;PMS7003;66484;49.968;19.140;2023-01-13T08:40:32;8.33;6.00;5.00
77411;PMS7003;66484;49.968;19.140;2023-01-13T08:42:58;4.33;2.00;2.00
77411;PMS7003;66484;49.968;19.140;2023-01-13T08:45:25;2.00;2.00;1.00
77411;PMS7003;66484;49.968;19.140;2023-01-13T08:47:51;4.33;4.33;2.00
77411;PMS7003;66484;49.968;19.140;2023-01-13T08:50:17;16.00;16.00;11.67
77411;PMS7003;66484;49.968;19.140;2023-01-13T08:52:43;5.00;4.00;4.00
77411;PMS7003;66484;49.968;19.140;2023-01-13T08:55:10;14.00;10.67;9.00
77411;PMS7003;66484;49.968;19.140;2023-01-13T08:57:36;10.67;8.33;6.67
77411;PMS7003;66484;49.968;19.140;2023-01-13T09:00:03;11.33;9.00;7.00
77411;PMS7003;66484;49.968;19.140;2023-01-13T09:02:30;14.67;11.67;10.67
77411;PMS7003;66484;49.968;19.140;2023-01-13T09:04:56;9.00;7.00;7.00
77411;PMS7003;66484;49.968;19.140;2023-01-13T09:07:22;14.00;9.33;7.33
77411;PMS7003;66484;49.968;19.140;2023-01-13T09:09:48;5.33;5.33;5.00
77411;PMS7003;66484;49.968;19.140;2023-01-13T09:12:14;7.67;7.67;7.00
77411;PMS7003;66484;49.968;19.140;2023-01-13T09:15:00;9.00;6.00;3.00
77411;PMS7003;66484;49.968;19.140;2023-01-13T09:17:27;3.67;2.33;2.00
77411;PMS7003;66484;49.968;19.140;2023-01-13T09:19:53;5.67;5.67;4.33
77411;PMS7003;66484;49.968;19.140;2023-01-13T09:22:19;10.00;7.00;6.00
77411;PMS7003;66484;49.968;19.140;2023-01-13T09:24:45;3.00;3.00;3.00
77411;PMS7003;66484;49.968;19.140;2023-01-13T09:27:12;4.67;2.67;2.00
77411;PMS7003;66484;49.968;19.140;2023-01-13T09:29:39;10.00;10.00;7.00
77411;PMS7003;66484;49.968;19.140;2023-01-13T09:32:05;8.33;6.00;5.00
77411;PMS7003;66484;49.968;19.140;2023-01-13T09:34:31;19.33;16.33;12.33
77411;PMS7003;66484;49.968;19.140;2023-01-13T09:37:15;9.00;9.00;6.00
77411;PMS7003;66484;49.968;19.140;2023-01-13T09:39:41;8.00;8.00;7.00
77411;PMS7003;66484;49.968;19.140;2023-01-13T09:42:29;10.67;6.67;6.67
77411;PMS7003;66484;49.968;19.140;2023-01-13T09:48:11;10.33;7.67;5.00
77411;PMS7003;66484;49.968;19.140;2023-01-13T09:53:54;8.00;8.00;6.67
77411;PMS7003;66484;49.968;19.140;2023-01-13T09:56:04;11.00;8.00;7.00
77411;PMS7003;66484;49.968;19.140;2023-01-13T09:58:31;5.00;3.67;1.33
77411;PMS7003;66484;49.968;19.140;2023-01-13T10:03:35;2.00;1.00;1.00
77411;PMS7003;66484;49.968;19.140;2023-01-13T10:08:37;6.33;4.33;3.00
77411;PMS7003;66484;49.968;19.140;2023-01-13T10:11:16;5.67;3.00;2.33
77411;PMS7003;66484;49.968;19.140;2023-01-13T10:27:49;5.67;4.33;2.67
77411;PMS7003;66484;49.968;19.140;2023-01-13T10:30:18;1.00;1.00;1.00
77411;PMS7003;66484;49.968;19.140;2023-01-13T10:32:51;6.67;4.33;3.00
77411;PMS7003;66484;49.968;19.140;2023-01-13T10:35:17;2.00;2.00;2.00
77411;PMS7003;66484;49.968;19.140;2023-01-13T10:37:54;2.33;2.33;2.00
77411;PMS7003;66484;49.968;19.140;2023-01-13T10:40:21;1.67;0.00;0.00
77411;PMS7003;66484;49.968;19.140;2023-01-13T10:42:47;3.00;3.00;1.67
77411;PMS7003;66484;49.968;19.140;2023-01-13T10:45:23;7.33;2.00;2.00
77411;PMS7003;66484;49.968;19.140;2023-01-13T10:48:02;6.33;5.33;3.00
77411;PMS7003;66484;49.968;19.140;2023-01-13T10:50:33;6.00;5.33;3.00
77411;PMS7003;66484;49.968;19.140;2023-01-13T10:53:22;6.00;6.00;5.00
77411;PMS7003;66484;49.968;19.140;2023-01-13T10:55:59;3.67;3.67;3.00
77411;PMS7003;66484;49.968;19.140;2023-01-13T10:58:26;10.00;10.00;6.67
77411;PMS7003;66484;49.968;19.140;2023-01-13T11:01:03;7.33;4.33;4.33
77411;PMS7003;66484;49.968;19.140;2023-01-13T11:03:34;3.00;2.00;2.00
77411;PMS7003;66484;49.968;19.140;2023-01-13T11:06:07;5.33;5.33;4.33
77411;PMS7003;66484;49.968;19.140;2023-01-13T11:13:55;8.33;5.33;3.00
77411;PMS7003;66484;49.968;19.140;2023-01-13T11:16:43;8.00;7.00;6.00
77411;PMS7003;66484;49.968;19.140;2023-01-13T11:19:13;4.33;4.33;3.00
77411;PMS7003;66484;49.968;19.140;2023-01-13T11:27:04;6.67;5.67;5.00
77411;PMS7003;66484;49.968;19.140;2023-01-13T11:32:21;6.00;5.00;3.00
77411;PMS7003;66484;49.968;19.140;2023-01-13T11:34:55;10.00;5.67;2.67
77411;PMS7003;66484;49.968;19.140;2023-01-13T11:37:26;15.67;8.00;6.67
77411;PMS7003;66484;49.968;19.140;2023-01-13T11:48:07;9.00;8.67;6.67
77411;PMS7003;66484;49.968;19.140;2023-01-13T11:50:40;8.00;8.00;6.00
77411;PMS7003;66484;49.968;19.140;2023-01-13T12:04:41;5.33;5.33;2.00
77411;PMS7003;66484;49.968;19.140;2023-01-13T12:07:15;10.00;7.67;6.00
77411;PMS7003;66484;49.968;19.140;2023-01-13T12:09:52;5.33;5.33;3.00
77411;PMS7003;66484;49.968;19.140;2023-01-13T12:20:38;10.67;8.33;8.33
77411;PMS7003;66484;49.968;19.140;2023-01-13T12:45:15;12.00;8.00;5.00
77411;PMS7003;66484;49.968;19.140;2023-01-13T12:47:45;9.00;8.67;6.00
77411;PMS7003;66484;49.968;19.140;2023-01-13T12:52:47;7.00;6.00;4.00
77411;PMS7003;66484;49.968;19.140;2023-01-13T12:55:33;8.00;6.67;4.67
77411;PMS7003;66484;49.968;19.140;2023-01-13T13:00:30;3.00;3.00;2.00
77411;PMS7003;66484;49.968;19.140;2023-01-13T13:11:44;13.67;13.67;9.00
77411;PMS7003;66484;49.968;19.140;2023-01-13T13:17:02;14.00;12.67;8.00
77411;PMS7003;66484;49.968;19.140;2023-01-13T13:19:52;9.67;7.00;6.00
77411;PMS7003;66484;49.968;19.140;2023-01-13T13:41:27;11.67;11.00;9.00
77411;PMS7003;66484;49.968;19.140;2023-01-13T13:44:18;14.67;12.00;8.33
77411;PMS7003;66484;49.968;19.140;2023-01-13T13:47:05;30.25;22.00;14.00
77411;PMS7003;66484;49.968;19.140;2023-01-13T13:49:37;29.00;27.75;19.50
77411;PMS7003;66484;49.968;19.140;2023-01-13T13:52:20;20.33;13.67;11.33
77411;PMS7003;66484;49.968;19.140;2023-01-13T13:54:51;10.00;6.00;5.00
77411;PMS7003;66484;49.968;19.140;2023-01-13T13:57:21;16.67;12.33;9.67
77411;PMS7003;66484;49.968;19.140;2023-01-13T13:59:55;12.33;8.67;7.67
77411;PMS7003;66484;49.968;19.140;2023-01-13T14:02:29;7.33;6.33;6.00
77411;PMS7003;66484;49.968;19.140;2023-01-13T14:08:00;11.00;6.33;4.67
77411;PMS7003;66484;49.968;19.140;2023-01-13T14:10:40;12.00;8.67;7.00
77411;PMS7003;66484;49.968;19.140;2023-01-13T14:13:21;8.33;7.00;6.00
77411;PMS7003;66484;49.968;19.140;2023-01-13T14:16:05;10.33;7.67;6.00
77411;PMS7003;66484;49.968;19.140;2023-01-13T14:18:45;13.33;11.67;10.33
77411;PMS7003;66484;49.968;19.140;2023-01-13T14:21:28;11.67;11.67;8.00
77411;PMS7003;66484;49.968;19.140;2023-01-13T14:26:35;8.00;8.00;6.00
77411;PMS7003;66484;49.968;19.140;2023-01-13T14:29:04;6.67;5.33;3.67
77411;PMS7003;66484;49.968;19.140;2023-01-13T14:31:31;22.33;21.67;16.00
77411;PMS7003;66484;49.968;19.140;2023-01-13T14:34:00;26.50;26.50;21.50
77411;PMS7003;66484;49.968;19.140;2023-01-13T14:36:37;11.67;10.67;8.67
77411;PMS7003;66484;49.968;19.140;2023-01-13T14:41:46;23.67;21.33;14.33
77411;PMS7003;66484;49.968;19.140;2023-01-13T14:46:47;14.67;12.00;10.33
77411;PMS7003;66484;49.968;19.140;2023-01-13T14:49:17;25.67;16.33;10.67
77411;PMS7003;66484;49.968;19.140;2023-01-13T14:51:48;20.33;17.00;12.00
77411;PMS7003;66484;49.968;19.140;2023-01-13T14:57:35;17.50;14.00;11.75
77411;PMS7003;66484;49.968;19.140;2023-01-13T15:07:52;14.67;13.00;10.67
77411;PMS7003;66484;49.968;19.140;2023-01-13T15:10:20;8.33;2.33;0.00
77411;PMS7003;66484;49.968;19.140;2023-01-13T15:12:48;20.33;15.33;12.00
77411;PMS7003;66484;49.968;19.140;2023-01-13T15:17:46;17.00;16.00;11.00
77411;PMS7003;66484;49.968;19.140;2023-01-13T15:20:13;10.00;10.00;8.00
77411;PMS7003;66484;49.968;19.140;2023-01-13T15:22:39;20.67;15.33;11.33
77411;PMS7003;66484;49.968;19.140;2023-01-13T15:25:05;17.67;15.33;11.33
77411;PMS7003;66484;49.968;19.140;2023-01-13T15:27:35;11.33;11.00;8.67
77411;PMS7003;66484;49.968;19.140;2023-01-13T15:30:24;8.00;8.00;7.67
77411;PMS7003;66484;49.968;19.140;2023-01-13T15:32:53;20.00;16.00;11.50
77411;PMS7003;66484;49.968;19.140;2023-01-13T15:35:20;18.75;16.25;13.00
77411;PMS7003;66484;49.968;19.140;2023-01-13T15:37:50;14.50;14.50;10.50
77411;PMS7003;66484;49.968;19.140;2023-01-13T15:40:50;13.33;10.00;6.33
77411;PMS7003;66484;49.968;19.140;2023-01-13T15:43:13;13.67;12.00;10.00
77411;PMS7003;66484;49.968;19.140;2023-01-13T15:45:59;15.50;12.00;9.00
77411;PMS7003;66484;49.968;19.140;2023-01-13T15:48:44;16.67;15.67;11.00
77411;PMS7003;66484;49.968;19.140;2023-01-13T15:51:10;9.33;7.00;6.00
77411;PMS7003;66484;49.968;19.140;2023-01-13T15:53:38;11.33;8.00;7.67
77411;PMS7003;66484;49.968;19.140;2023-01-13T15:56:05;13.25;12.00;10.50
77411;PMS7003;66484;49.968;19.140;2023-01-13T15:58:36;9.50;9.50;8.00
77411;PMS7003;66484;49.968;19.140;2023-01-13T16:01:02;15.25;12.00;10.00
77411;PMS7003;66484;49.968;19.140;2023-01-13T16:03:28;14.75;11.00;10.00
77411;PMS7003;66484;49.968;19.140;2023-01-13T16:05:54;14.50;11.00;8.00
77411;PMS7003;66484;49.968;19.140;2023-01-13T16:08:20;6.50;6.00;5.25
77411;PMS7003;66484;49.968;19.140;2023-01-13T16:10:47;9.00;9.00;7.25
77411;PMS7003;66484;49.968;19.140;2023-01-13T16:13:14;13.50;11.25;10.25
77411;PMS7003;66484;49.968;19.140;2023-01-13T16:15:41;11.50;10.00;8.00
77411;PMS7003;66484;49.968;19.140;2023-01-13T16:18:13;11.25;8.50;6.25
77411;PMS7003;66484;49.968;19.140;2023-01-13T16:20:41;16.75;16.25;10.50
77411;PMS7003;66484;49.968;19.140;2023-01-13T16:23:08;16.00;14.75;10.25
77411;PMS7003;66484;49.968;19.140;2023-01-13T16:25:35;7.00;7.00;6.50
77411;PMS7003;66484;49.968;19.140;2023-01-13T16:28:05;15.00;14.00;9.50
77411;PMS7003;66484;49.968;19.140;2023-01-13T16:30:35;16.50;14.00;10.25
77411;PMS7003;66484;49.968;19.140;2023-01-13T16:33:02;11.50;8.75;5.25
77411;PMS7003;66484;49.968;19.140;2023-01-13T16:35:28;10.00;10.00;7.50
77411;PMS7003;66484;49.968;19.140;2023-01-13T16:37:56;17.50;11.75;8.75
77411;PMS7003;66484;49.968;19.140;2023-01-13T16:40:28;0.50;0.00;0.00
77411;PMS7003;66484;49.968;19.140;2023-01-13T16:42:59;11.25;10.00;6.00
77411;PMS7003;66484;49.968;19.140;2023-01-13T16:45:28;10.50;8.75;7.50
77411;PMS7003;66484;49.968;19.140;2023-01-13T16:47:55;12.75;10.50;8.50
77411;PMS7003;66484;49.968;19.140;2023-01-13T16:50:25;19.00;11.25;8.75
77411;PMS7003;66484;49.968;19.140;2023-01-13T16:52:56;19.00;16.75;11.25
77411;PMS7003;66484;49.968;19.140;2023-01-13T16:55:22;18.25;15.25;11.00
77411;PMS7003;66484;49.968;19.140;2023-01-13T16:57:49;24.75;24.75;19.50
77411;PMS7003;66484;49.968;19.140;2023-01-13T17:00:15;20.75;18.25;14.00
77411;PMS7003;66484;49.968;19.140;2023-01-13T17:02:43;22.75;20.50;15.25
77411;PMS7003;66484;49.968;19.140;2023-01-13T17:05:10;16.75;16.50;13.50
77411;PMS7003;66484;49.968;19.140;2023-01-13T17:07:38;18.25;16.50;11.00
77411;PMS7003;66484;49.968;19.140;2023-01-13T17:10:05;18.75;15.75;11.75
77411;PMS7003;66484;49.968;19.140;2023-01-13T17:12:32;24.50;19.00;13.50
77411;PMS7003;66484;49.968;19.140;2023-01-13T17:14:57;32.25;27.00;19.00
77411;PMS7003;66484;49.968;19.140;2023-01-13T17:17:24;15.50;14.50;11.00
77411;PMS7003;66484;49.968;19.140;2023-01-13T17:19:51;17.75;14.25;9.50
77411;PMS7003;66484;49.968;19.140;2023-01-13T17:22:19;12.00;10.00;9.00
77411;PMS7003;66484;49.968;19.140;2023-01-13T17:24:45;19.50;15.75;10.25
77411;PMS7003;66484;49.968;19.140;2023-01-13T17:27:11;15.00;14.50;13.00
77411;PMS7003;66484;49.968;19.140;2023-01-13T17:29:37;22.25;17.75;14.50